Time;durP1;ratioP1;P1;durP2;ratioP2;P2;SDS_P1;SDS_P2;PMS_P1;PMS_P2;Temp;Humidity;BMP_temperature;BMP_pressure;BME280_temperature;BME280_humidity;BME280_pressure;Samples;Min_cycle;Max_cycle;Signal;HPM_P1;HPM_P2
2022/08/16 00:05:25;;;;;;;16.70;11.50;;;;;;;20.93;74.05;99064.13;214177;1276;141306;-69
2022/08/16 00:10:40;;;;;;;13.80;10.40;;;;;;;20.95;74.14;99060.61;213932;1276;141328;-67
2022/08/16 00:15:47;;;;;;;16.20;12.90;;;;;;;20.86;74.26;99068.35;214003;1276;140514;-68
2022/08/16 00:20:57;;;;;;;13.40;10.80;;;;;;;20.83;74.63;99067.61;213763;1277;141628;-67
2022/08/16 00:26:01;;;;;;;14.90;13.20;;;;;;;20.76;74.70;99068.02;213111;1277;141739;-69
2022/08/16 00:31:28;;;;;;;13.40;11.00;;;;;;;20.71;74.88;99071.04;213469;1276;143577;-68
2022/08/16 00:36:52;;;;;;;16.50;12.10;;;;;;;20.56;75.09;99068.07;213426;1277;141360;-68
2022/08/16 00:41:58;;;;;;;21.00;12.40;;;;;;;20.53;75.57;99070.88;213639;1276;141862;-68
2022/08/16 00:47:09;;;;;;;15.30;11.20;;;;;;;20.59;75.60;99074.39;213776;1277;141417;-68
2022/08/16 00:52:16;;;;;;;11.80;10.40;;;;;;;20.57;75.64;99073.68;213260;1277;142914;-67
2022/08/16 00:57:35;;;;;;;19.00;12.30;;;;;;;20.63;75.90;99072.16;213641;1276;141430;-68
2022/08/16 01:03:00;;;;;;;13.20;11.30;;;;;;;20.58;75.79;99065.43;214540;1276;140487;-69
2022/08/16 01:08:07;;;;;;;17.20;12.60;;;;;;;20.39;75.92;99063.55;215678;1277;140124;-68
2022/08/16 01:13:33;;;;;;;15.40;11.70;;;;;;;20.37;76.34;99075.02;213102;1277;141593;-68
2022/08/16 01:19:00;;;;;;;14.20;12.20;;;;;;;20.37;76.07;99076.80;214579;1276;143450;-68
2022/08/16 01:24:32;;;;;;;16.60;11.50;;;;;;;20.26;76.32;99069.19;215777;1276;141679;-68
2022/08/16 01:30:11;;;;;;;13.40;10.80;;;;;;;20.32;76.57;99063.83;215317;1277;140711;-68
2022/08/16 01:35:34;;;;;;;16.70;11.20;;;;;;;20.37;76.54;99054.71;215708;1277;140635;-68
2022/08/16 01:40:38;;;;;;;18.20;11.80;;;;;;;20.41;76.63;99051.09;215732;1277;141624;-68
2022/08/16 01:45:43;;;;;;;11.70;10.60;;;;;;;20.46;76.78;99054.96;214107;1275;1459085;-67
2022/08/16 01:50:50;;;;;;;13.10;11.50;;;;;;;20.38;76.59;99053.39;215078;1276;140445;-67
2022/08/16 01:56:15;;;;;;;18.90;11.60;;;;;;;20.35;76.80;99061.27;213212;1276;141193;-68
2022/08/16 02:01:29;;;;;;;19.20;12.10;;;;;;;20.22;76.54;99064.44;214134;1277;141019;-67
2022/08/16 02:06:34;;;;;;;;;;;;;;;20.18;76.93;99065.48;213966;1276;140426;-67
2022/08/16 02:11:50;;;;;;;13.70;11.90;;;;;;;20.24;77.42;99069.15;213898;1276;127700;-67
2022/08/16 02:16:57;;;;;;;14.60;13.00;;;;;;;20.27;77.33;99060.35;213408;1277;142405;-68
2022/08/16 02:22:08;;;;;;;16.20;13.20;;;;;;;20.27;77.36;99057.20;213058;1277;140929;-68
2022/08/16 02:27:34;;;;;;;24.20;12.40;;;;;;;20.14;77.21;99056.89;214040;1276;142431;-70
2022/08/16 02:32:39;;;;;;;17.30;12.90;;;;;;;20.05;77.23;99055.73;213281;1276;141363;-68
2022/08/16 02:38:03;;;;;;;13.20;11.70;;;;;;;19.99;77.12;99054.82;213197;1276;143733;-68
2022/08/16 02:43:12;;;;;;;15.60;12.30;;;;;;;19.97;77.27;99052.87;213581;1275;141220;-68
2022/08/16 02:48:17;;;;;;;21.40;13.90;;;;;;;19.96;77.46;99049.33;213632;1277;142956;-68
2022/08/16 02:53:35;;;;;;;16.60;13.40;;;;;;;19.93;77.51;99051.67;213881;1275;142325;-68
2022/08/16 02:58:40;;;;;;;13.20;11.80;;;;;;;19.83;77.80;99047.84;213355;1277;141754;-69
2022/08/16 03:03:47;;;;;;;15.30;12.30;;;;;;;19.83;78.02;99048.82;214629;1277;143298;-68
2022/08/16 03:09:11;;;;;;;13.40;12.10;;;;;;;19.75;77.96;99048.88;215045;1277;141873;-68
2022/08/16 03:14:17;;;;;;;14.30;12.70;;;;;;;19.68;78.22;99052.84;215303;1277;141976;-68
2022/08/16 03:19:35;;;;;;;18.10;13.40;;;;;;;19.63;78.42;99059.78;213795;1277;142133;-69
2022/08/16 03:25:01;;;;;;;17.50;12.90;;;;;;;19.57;78.53;99056.96;215703;1277;142351;-69
2022/08/16 03:30:17;;;;;;;14.50;12.90;;;;;;;19.55;78.72;99054.77;213706;1277;141488;-68
2022/08/16 03:35:25;;;;;;;14.80;13.00;;;;;;;19.53;78.88;99061.52;215582;1277;141879;-69
2022/08/16 03:40:36;;;;;;;16.40;12.30;;;;;;;19.60;79.07;99062.02;215069;1277;141017;-67
2022/08/16 03:45:40;;;;;;;16.40;13.30;;;;;;;19.76;79.26;99067.88;213861;1277;140891;-69
2022/08/16 03:50:44;;;;;;;15.30;13.60;;;;;;;19.84;79.06;99072.98;214981;1277;141461;-69
2022/08/16 03:56:03;;;;;;;15.50;13.10;;;;;;;19.92;78.85;99074.73;213418;1277;140446;-69
2022/08/16 04:01:09;;;;;;;17.20;12.40;;;;;;;19.99;78.99;99080.25;214160;1277;141094;-69
2022/08/16 04:06:15;;;;;;;16.80;14.00;;;;;;;20.03;78.81;99083.16;214355;1276;140504;-69
2022/08/16 04:11:20;;;;;;;15.50;14.00;;;;;;;20.04;78.50;99083.40;213373;1276;141581;-69
2022/08/16 04:16:26;;;;;;;14.70;13.10;;;;;;;19.94;78.55;99092.83;213241;1277;141652;-68
2022/08/16 04:21:32;;;;;;;14.20;12.70;;;;;;;19.93;78.70;99095.11;214146;1277;142210;-68
2022/08/16 04:26:36;;;;;;;18.20;13.00;;;;;;;20.03;78.99;99098.80;214108;1276;141022;-67
2022/08/16 04:31:52;;;;;;;14.80;13.30;;;;;;;20.12;78.92;99095.69;213792;1277;141715;-67
2022/08/16 04:37:01;;;;;;;15.60;12.90;;;;;;;20.23;79.11;99095.71;213696;1277;139907;-67
2022/08/16 04:42:05;;;;;;;23.50;12.60;;;;;;;20.36;79.21;99100.70;214880;1277;141157;-68
2022/08/16 04:47:14;;;;;;;15.20;13.70;;;;;;;20.54;79.22;99106.11;214542;1276;141241;-68
2022/08/16 04:52:27;;;;;;;15.30;12.20;;;;;;;20.80;79.29;99105.07;214485;1275;140992;-68
2022/08/16 04:57:38;;;;;;;14.90;13.40;;;;;;;20.99;78.94;99098.29;214160;1277;140549;-68
2022/08/16 05:02:44;;;;;;;16.10;14.40;;;;;;;20.98;78.59;99097.63;214360;1277;141978;-68
2022/08/16 05:07:49;;;;;;;13.90;12.50;;;;;;;21.06;79.02;99102.16;214158;1276;139702;-66
2022/08/16 05:13:04;;;;;;;16.20;14.50;;;;;;;21.16;78.92;99097.89;215811;1276;141739;-68
2022/08/16 05:18:09;;;;;;;22.80;14.00;;;;;;;21.31;79.08;99093.37;213859;1277;143050;-68
2022/08/16 05:23:18;;;;;;;20.70;14.30;;;;;;;21.48;79.17;99091.58;215506;1276;142611;-67
2022/08/16 05:28:23;;;;;;;16.00;13.30;;;;;;;21.80;79.28;99093.98;214920;1276;141041;-67
2022/08/16 05:33:39;;;;;;;21.70;15.10;;;;;;;22.09;78.82;99099.95;215171;1276;141292;-67
2022/08/16 05:38:45;;;;;;;14.70;13.30;;;;;;;22.83;77.57;99101.20;214406;1276;140579;-67
2022/08/16 05:43:49;;;;;;;15.60;13.20;;;;;;;23.71;76.62;99105.39;214396;1276;142345;-67
2022/08/16 05:49:01;;;;;;;15.10;13.50;;;;;;;23.89;76.20;99103.32;214569;1276;141771;-67
2022/08/16 05:54:13;;;;;;;15.20;13.90;;;;;;;24.52;75.03;99101.48;213561;1276;140803;-68
2022/08/16 05:59:18;;;;;;;16.30;14.90;;;;;;;25.22;74.79;99098.91;213839;1276;143205;-68
2022/08/16 06:04:26;;;;;;;16.00;14.50;;;;;;;25.04;73.05;99104.87;214052;1276;141410;-67
2022/08/16 06:09:39;;;;;;;15.00;13.70;;;;;;;25.11;72.60;99107.73;212866;1276;141245;-66
2022/08/16 06:14:45;;;;;;;20.30;14.40;;;;;;;25.06;72.48;99110.62;214527;1276;141462;-67
2022/08/16 06:19:53;;;;;;;15.80;14.10;;;;;;;24.97;72.72;99111.70;214798;1276;141012;-66
2022/08/16 06:24:58;;;;;;;14.50;13.00;;;;;;;24.99;72.58;99122.72;213526;1277;141362;-65
2022/08/16 06:30:03;;;;;;;22.50;14.10;;;;;;;24.99;72.72;99127.71;213319;1277;141547;-68
2022/08/16 06:35:10;;;;;;;16.40;14.80;;;;;;;25.15;73.16;99130.90;213380;1276;141429;-67
2022/08/16 06:40:14;;;;;;;15.30;11.70;;;;;;;25.32;72.74;99132.70;213717;1276;141069;-67
2022/08/16 06:45:19;;;;;;;19.20;14.20;;;;;;;25.39;72.29;99129.86;214096;1276;140593;-67
2022/08/16 06:50:26;;;;;;;16.80;14.30;;;;;;;25.49;71.88;99135.83;214258;1276;140655;-66
2022/08/16 06:55:34;;;;;;;14.50;13.10;;;;;;;25.58;71.80;99142.55;213426;1276;140772;-67
2022/08/16 07:00:40;;;;;;;14.00;12.70;;;;;;;25.91;71.70;99150.47;214560;1276;141818;-68
2022/08/16 07:05:45;;;;;;;15.20;12.50;;;;;;;26.77;71.12;99151.25;215571;1275;141174;-68
2022/08/16 07:10:50;;;;;;;12.20;11.10;;;;;;;27.95;69.21;99149.91;215293;1276;140385;-68
2022/08/16 07:15:54;;;;;;;12.40;11.30;;;;;;;29.31;67.37;99159.00;214920;1276;142263;-68
2022/08/16 07:20:58;;;;;;;15.20;12.80;;;;;;;30.10;66.39;99168.11;215918;1276;140576;-68
2022/08/16 07:26:07;;;;;;;13.70;12.10;;;;;;;30.72;64.42;99175.64;215804;1275;140304;-72
2022/08/16 07:31:12;;;;;;;15.50;11.40;;;;;;;31.33;63.60;99176.00;214993;1276;140419;-67
2022/08/16 07:36:17;;;;;;;13.60;10.70;;;;;;;31.78;62.15;99175.64;215115;1276;221331;-66
2022/08/16 07:41:30;;;;;;;12.90;11.60;;;;;;;32.18;61.42;99178.15;215366;1276;141527;-70
2022/08/16 07:46:36;;;;;;;13.50;11.80;;;;;;;32.53;60.37;99173.11;214611;1276;141601;-67
2022/08/16 07:51:45;;;;;;;12.20;11.10;;;;;;;32.82;59.72;99175.07;214201;1276;140472;-67
2022/08/16 07:56:51;;;;;;;12.40;11.10;;;;;;;32.96;58.36;99169.92;214100;1276;142692;-68
2022/08/16 08:02:07;;;;;;;15.10;10.50;;;;;;;32.86;57.75;99168.52;213568;1276;140542;-66
2022/08/16 08:07:15;;;;;;;18.50;12.00;;;;;;;32.76;56.90;99170.66;213581;1276;139963;-68
2022/08/16 08:12:19;;;;;;;11.60;10.60;;;;;;;32.86;56.24;99168.61;213847;1276;140633;-69
2022/08/16 08:17:38;;;;;;;13.10;11.90;;;;;;;32.91;56.48;99166.93;214192;1276;140032;-67
2022/08/16 08:22:49;;;;;;;13.30;12.00;;;;;;;32.87;55.03;99169.53;214422;1276;141714;-68
2022/08/16 08:27:53;;;;;;;12.50;10.70;;;;;;;32.48;54.97;99170.82;213955;1276;141401;-67
2022/08/16 08:33:00;;;;;;;12.50;11.40;;;;;;;32.07;54.69;99174.98;213242;1276;142549;-67
2022/08/16 08:38:07;;;;;;;14.60;12.40;;;;;;;31.71;54.74;99171.84;213628;1276;141401;-69
2022/08/16 08:43:11;;;;;;;16.50;13.70;;;;;;;31.50;55.32;99174.58;214033;1276;141274;-68
2022/08/16 08:48:21;;;;;;;13.20;11.80;;;;;;;31.42;55.90;99175.11;214001;1276;141610;-66
2022/08/16 08:53:38;;;;;;;16.70;11.20;;;;;;;31.94;55.94;99169.69;212932;1276;142161;-67
2022/08/16 08:58:42;;;;;;;;;;;;;;;32.22;55.09;99168.23;213357;1276;155287;-65
2022/08/16 09:04:02;;;;;;;13.70;11.00;;;;;;;32.17;54.48;99167.98;214407;1276;127459;-67
2022/08/16 09:09:08;;;;;;;12.90;11.60;;;;;;;31.92;54.10;99174.79;215664;1276;141283;-67
2022/08/16 09:14:19;;;;;;;13.40;12.20;;;;;;;32.10;54.30;99167.17;214763;1276;141261;-67
2022/08/16 09:19:27;;;;;;;13.60;12.40;;;;;;;32.21;53.80;99175.24;215665;1276;140736;-68
2022/08/16 09:24:36;;;;;;;13.30;11.80;;;;;;;32.00;53.62;99179.53;215799;1276;140995;-67
2022/08/16 09:29:55;;;;;;;11.00;9.80;;;;;;;31.46;53.27;99178.42;215014;1276;142478;-70
2022/08/16 09:35:04;;;;;;;17.30;11.80;;;;;;;30.69;53.55;99177.03;213775;1276;140181;-66
2022/08/16 09:40:09;;;;;;;12.40;11.30;;;;;;;30.24;54.44;99177.54;215285;1276;141308;-67
2022/08/16 09:45:37;;;;;;;;;;;;;;;30.18;55.66;99177.79;213897;1276;141562;-67
2022/08/16 09:50:43;;;;;;;11.10;10.00;;;;;;;30.19;55.93;99177.73;215488;1276;125915;-66
2022/08/16 09:55:51;;;;;;;15.50;11.70;;;;;;;30.07;55.74;99182.40;213384;1276;139620;-66
2022/08/16 10:00:58;;;;;;;12.40;11.10;;;;;;;29.94;55.93;99187.74;213628;1276;141659;-66
2022/08/16 10:06:03;;;;;;;10.90;9.80;;;;;;;30.39;56.24;99187.16;214725;1276;141535;-67
2022/08/16 10:16:30;;;;;;;12.90;10.60;;;;;;;31.44;54.32;99195.73;213680;1276;141810;-65
2022/08/16 10:21:36;;;;;;;10.10;9.10;;;;;;;31.09;53.26;99198.86;215384;1276;140877;-66
2022/08/16 10:26:44;;;;;;;11.10;9.70;;;;;;;31.22;54.04;99192.87;214780;1276;140553;-66
2022/08/16 10:32:09;;;;;;;17.20;9.20;;;;;;;31.87;52.67;99191.10;213182;1276;139856;-66
2022/08/16 10:37:13;;;;;;;9.80;8.70;;;;;;;32.33;52.38;99196.60;214140;1276;139984;-68
2022/08/16 10:42:36;;;;;;;11.00;9.80;;;;;;;32.62;50.98;99193.45;214896;1275;139362;-67
2022/08/16 10:47:43;;;;;;;11.40;9.50;;;;;;;32.98;49.91;99190.03;214977;1276;140310;-67
2022/08/16 10:52:47;;;;;;;11.80;9.20;;;;;;;33.21;49.31;99188.55;214151;1276;139914;-67
2022/08/16 10:58:01;;;;;;;18.00;8.70;;;;;;;33.43;48.64;99184.38;215160;1276;139527;-68
2022/08/16 11:03:14;;;;;;;10.50;9.40;;;;;;;33.42;48.29;99187.14;213802;1276;139908;-67
2022/08/16 11:08:40;;;;;;;9.10;8.10;;;;;;;33.54;47.49;99192.39;214617;1276;139990;-67
2022/08/16 11:13:51;;;;;;;10.20;9.20;;;;;;;33.62;47.73;99192.98;215237;1276;141629;-67
2022/08/16 11:19:14;;;;;;;10.90;8.60;;;;;;;33.85;46.69;99192.09;215644;1277;140696;-69
2022/08/16 11:24:19;;;;;;;10.80;9.60;;;;;;;33.46;45.85;99187.91;214589;1277;140171;-67
2022/08/16 11:29:55;;;;;;;10.00;9.00;;;;;;;33.03;46.51;99186.23;213970;1278;140273;-67
2022/08/16 11:35:10;;;;;;;10.40;8.60;;;;;;;33.23;46.29;99189.02;214134;1277;140237;-67
2022/08/16 11:40:18;;;;;;;11.20;10.10;;;;;;;33.12;46.44;99192.05;213408;1278;141570;-68
2022/08/16 11:45:35;;;;;;;9.60;8.70;;;;;;;32.61;46.59;99186.98;214832;1278;140577;-69
2022/08/16 11:50:39;;;;;;;9.90;8.50;;;;;;;32.40;47.05;99190.71;212908;1278;139941;-68
2022/08/16 11:55:43;;;;;;;;;;;;;;;31.97;47.07;99182.98;214171;1279;141589;-67
2022/08/16 12:00:47;;;;;;;9.70;8.80;;;;;;;31.74;47.21;99179.95;214010;1278;126659;-67
2022/08/16 12:05:56;;;;;;;11.30;9.20;;;;;;;32.17;47.25;99175.46;213978;1277;142612;-66
2022/08/16 12:11:00;;;;;;;15.20;10.20;;;;;;;32.52;46.83;99170.60;214586;1277;140627;-67
2022/08/16 12:16:07;;;;;;;9.50;8.70;;;;;;;32.72;46.19;99169.56;213982;1278;141170;-65
2022/08/16 12:21:12;;;;;;;11.50;10.10;;;;;;;32.87;45.74;99164.89;214060;1278;139447;-67
2022/08/16 12:26:16;;;;;;;10.50;9.00;;;;;;;32.56;45.59;99166.34;213368;1278;140131;-67
2022/08/16 12:31:21;;;;;;;11.90;10.30;;;;;;;31.98;46.18;99168.04;214283;1279;141662;-66
2022/08/16 12:36:26;;;;;;;10.80;9.10;;;;;;;31.60;47.06;99164.70;213167;1278;140804;-66
2022/08/16 12:41:36;;;;;;;13.00;9.90;;;;;;;31.57;47.99;99161.05;213265;1278;141730;-68
2022/08/16 12:48:56;;;;;;;11.70;9.50;;;;;;;31.53;48.50;99166.48;214597;1278;139530;-66
2022/08/16 12:52:10;;;;;;;13.90;9.30;;;;;;;31.80;48.96;99163.11;212747;1279;140601;-67
2022/08/16 12:57:35;;;;;;;11.00;9.00;;;;;;;32.25;48.41;99143.66;214855;1277;140325;-66
2022/08/16 13:02:39;;;;;;;11.30;9.80;;;;;;;32.12;47.80;99144.73;214187;1277;140071;-66
2022/08/16 13:07:44;;;;;;;9.70;8.60;;;;;;;31.95;47.36;99140.86;214346;1278;140749;-65
2022/08/16 13:12:55;;;;;;;9.90;9.00;;;;;;;32.05;46.72;99135.20;215048;1278;139700;-65
2022/08/16 13:17:59;;;;;;;11.30;10.20;;;;;;;32.06;46.54;99136.46;215046;1278;140213;-66
2022/08/16 13:23:23;;;;;;;14.10;9.00;;;;;;;32.00;47.13;99125.12;215524;1278;142206;-65
2022/08/16 13:28:28;;;;;;;15.90;9.70;;;;;;;31.96;47.77;99123.38;215588;1278;141874;-67
2022/08/16 13:33:36;;;;;;;11.10;8.50;;;;;;;32.12;47.38;99120.14;215223;1275;141273;-68
2022/08/16 13:38:40;;;;;;;10.00;8.30;;;;;;;32.26;46.91;99121.59;214352;1278;162253;-67
2022/08/16 13:43:49;;;;;;;11.10;8.90;;;;;;;32.36;46.72;99124.59;214023;1278;139800;-65
2022/08/16 13:49:01;;;;;;;11.90;8.60;;;;;;;32.45;45.96;99122.20;211360;1277;1932581;-66
2022/08/16 13:54:05;;;;;;;12.50;8.90;;;;;;;32.53;45.25;99127.95;214203;1277;140253;-64
2022/08/16 13:59:15;;;;;;;9.90;8.90;;;;;;;32.68;45.43;99125.09;213259;1278;141212;-66
2022/08/16 14:04:27;;;;;;;20.30;10.20;;;;;;;32.64;44.78;99127.21;213637;1278;139820;-67
2022/08/16 14:09:33;;;;;;;12.60;8.50;;;;;;;32.10;45.33;99124.95;213699;1278;140766;-66
2022/08/16 14:14:36;;;;;;;9.30;8.40;;;;;;;31.83;46.75;99129.27;213001;1278;140393;-66
2022/08/16 14:19:40;;;;;;;10.20;9.00;;;;;;;31.61;47.48;99131.57;214028;1277;140418;-66
2022/08/16 14:24:50;;;;;;;10.50;9.10;;;;;;;31.38;47.87;99134.17;213804;1278;140205;-67
2022/08/16 14:29:56;;;;;;;13.50;10.80;;;;;;;31.09;48.73;99132.16;213421;1277;140082;-66
2022/08/16 14:35:04;;;;;;;11.80;10.40;;;;;;;30.77;49.10;99126.31;212949;1277;141599;-67
2022/08/16 14:40:13;;;;;;;12.40;9.50;;;;;;;30.46;50.12;99127.83;213499;1277;141186;-68
2022/08/16 14:45:20;;;;;;;12.00;10.80;;;;;;;30.25;50.61;99132.69;212902;1279;141221;-66
2022/08/16 14:50:26;;;;;;;12.40;11.00;;;;;;;30.08;51.48;99129.09;213362;1278;140631;-66
2022/08/16 14:55:33;;;;;;;15.50;11.40;;;;;;;29.96;51.77;99125.27;212747;1278;141782;-66
2022/08/16 15:00:39;;;;;;;12.60;11.10;;;;;;;29.83;52.62;99127.82;213508;1277;141854;-68
2022/08/16 15:05:43;;;;;;;15.20;11.20;;;;;;;29.63;52.88;99124.23;215154;1277;140510;-70
2022/08/16 15:10:46;;;;;;;13.10;11.50;;;;;;;29.36;53.52;99131.77;215420;1278;140959;-68
2022/08/16 15:15:52;;;;;;;11.80;10.70;;;;;;;29.08;53.96;99131.89;215347;1277;140496;-66
2022/08/16 15:21:04;;;;;;;13.20;10.30;;;;;;;28.92;54.17;99132.54;215478;1277;141730;-66
2022/08/16 15:26:10;;;;;;;12.80;10.00;;;;;;;28.91;54.39;99137.23;215065;1277;140639;-67
2022/08/16 15:31:34;;;;;;;15.20;9.70;;;;;;;29.00;53.67;99140.73;215482;1278;141465;-67
2022/08/16 15:36:40;;;;;;;14.40;11.60;;;;;;;29.12;53.27;99147.54;215153;1277;141212;-67
2022/08/16 15:41:44;;;;;;;19.00;11.60;;;;;;;29.24;53.37;99153.89;214122;1278;141113;-65
2022/08/16 15:46:50;;;;;;;11.70;10.70;;;;;;;29.35;53.65;99158.27;214854;1278;140572;-68
2022/08/16 15:52:01;;;;;;;12.20;10.90;;;;;;;29.40;54.20;99158.58;214133;1277;139925;-67
2022/08/16 15:57:06;;;;;;;14.70;11.80;;;;;;;29.46;53.99;99167.98;213622;1277;139939;-67
2022/08/16 16:02:19;;;;;;;16.30;11.20;;;;;;;29.49;53.76;99170.08;213606;1277;141911;-67
2022/08/16 16:07:35;;;;;;;13.80;12.20;;;;;;;29.50;53.68;99173.69;213034;1277;141220;-65
2022/08/16 16:13:03;;;;;;;15.60;11.60;;;;;;;29.46;53.79;99185.96;213133;1277;142479;-65
2022/08/16 16:18:07;;;;;;;12.70;11.30;;;;;;;29.43;52.94;99192.27;212984;1277;152025;-64
2022/08/16 16:23:19;;;;;;;12.50;11.30;;;;;;;29.43;52.99;99191.73;214505;1277;141795;-66
2022/08/16 16:28:29;;;;;;;12.40;11.20;;;;;;;29.43;53.08;99191.25;213664;1277;141592;-65
2022/08/16 16:33:56;;;;;;;12.90;10.70;;;;;;;29.45;53.35;99198.48;214090;1277;140747;-65
2022/08/16 16:39:01;;;;;;;16.70;10.20;;;;;;;29.44;53.30;99199.26;213797;1277;140998;-66
2022/08/16 16:44:05;;;;;;;;;;;;;;;29.39;53.38;99193.14;213845;1277;140649;-67
2022/08/16 16:49:13;;;;;;;11.50;10.50;;;;;;;29.29;53.67;99193.11;214168;1277;126655;-66
2022/08/16 16:54:19;;;;;;;12.30;11.10;;;;;;;29.22;53.23;99195.91;213128;1277;142245;-66
2022/08/16 16:59:30;;;;;;;17.60;10.90;;;;;;;29.09;53.66;99197.23;215185;1277;140338;-66
2022/08/16 17:04:36;;;;;;;11.20;10.20;;;;;;;28.96;54.60;99193.98;215445;1277;141439;-67
2022/08/16 17:09:40;;;;;;;12.90;11.10;;;;;;;28.82;55.19;99195.33;215405;1277;140756;-68
2022/08/16 17:14:46;;;;;;;16.70;10.70;;;;;;;28.66;55.84;99190.61;215121;1277;160587;-68
2022/08/16 17:19:50;;;;;;;18.00;11.30;;;;;;;28.44;56.58;99188.77;215267;1277;143761;-65
2022/08/16 17:24:56;;;;;;;10.80;9.00;;;;;;;28.20;56.79;99182.48;215324;1277;141294;-66
2022/08/16 17:30:07;;;;;;;19.10;10.90;;;;;;;27.94;56.85;99185.22;214319;1278;140361;-65
2022/08/16 17:35:24;;;;;;;31.00;14.00;;;;;;;27.68;57.09;99194.52;213898;1277;141900;-66
2022/08/16 17:40:42;;;;;;;16.00;10.30;;;;;;;27.38;57.59;99200.62;212766;1277;141305;-65
2022/08/16 17:46:00;;;;;;;42.40;19.40;;;;;;;27.10;58.22;99205.48;213244;1280;141901;-66
2022/08/16 17:51:06;;;;;;;24.10;14.70;;;;;;;26.89;58.82;99206.16;213791;1277;141176;-65
2022/08/16 17:56:11;;;;;;;35.70;17.50;;;;;;;26.67;59.15;99208.83;213488;1277;141756;-65
2022/08/16 18:01:21;;;;;;;91.20;36.40;;;;;;;26.44;59.65;99220.54;214173;1277;141579;-67
2022/08/16 18:06:25;;;;;;;32.80;18.10;;;;;;;26.20;60.19;99218.50;213470;1277;142721;-65
2022/08/16 18:11:34;;;;;;;24.00;14.20;;;;;;;26.00;60.74;99223.58;213460;1277;141432;-67
2022/08/16 18:16:39;;;;;;;18.80;12.90;;;;;;;25.80;61.25;99229.42;212823;1277;143163;-66
2022/08/16 18:27:07;;;;;;;17.20;12.30;;;;;;;25.38;62.24;99237.17;212975;1277;140701;-65
2022/08/16 18:32:29;;;;;;;15.10;12.50;;;;;;;25.17;62.79;99241.61;212764;1277;142368;-65
2022/08/16 18:37:33;;;;;;;52.70;23.30;;;;;;;25.02;63.40;99249.95;213396;1277;142260;-69
2022/08/16 18:42:37;;;;;;;29.90;16.50;;;;;;;24.85;63.68;99254.31;214432;1277;139477;-66
2022/08/16 18:47:41;;;;;;;15.70;13.10;;;;;;;24.66;63.98;99257.90;214691;1277;141699;-67
2022/08/16 18:52:53;;;;;;;16.10;11.30;;;;;;;24.34;64.30;99258.38;215518;1277;140872;-67
2022/08/16 18:57:58;;;;;;;20.70;10.70;;;;;;;24.20;65.10;99255.85;214120;1277;140755;-67
2022/08/16 19:03:06;;;;;;;14.30;12.80;;;;;;;24.11;65.31;99257.85;213617;1277;140964;-66
2022/08/16 19:08:12;;;;;;;12.20;11.10;;;;;;;23.89;65.42;99260.05;215411;1277;141932;-67
2022/08/16 19:13:19;;;;;;;12.50;11.20;;;;;;;23.74;66.00;99268.13;215431;1277;151692;-68
2022/08/16 19:18:23;;;;;;;16.50;11.40;;;;;;;23.56;66.21;99270.42;212995;1277;141035;-67
2022/08/16 19:23:32;;;;;;;14.70;11.50;;;;;;;23.53;67.01;99274.27;213905;1277;141615;-68
2022/08/16 19:28:41;;;;;;;13.60;11.50;;;;;;;23.52;67.08;99278.73;214686;1277;141212;-66
2022/08/16 19:34:02;;;;;;;19.00;12.60;;;;;;;23.48;67.06;99279.60;213811;1277;141087;-67
2022/08/16 19:39:11;;;;;;;13.50;12.10;;;;;;;23.43;67.39;99280.78;213164;1277;141410;-67
2022/08/16 19:44:15;;;;;;;13.30;10.80;;;;;;;23.34;67.50;99285.18;213603;1277;141417;-69
2022/08/16 19:49:19;;;;;;;11.80;10.30;;;;;;;23.21;67.65;99285.27;213648;1277;143615;-66
2022/08/16 19:54:23;;;;;;;13.10;11.90;;;;;;;23.02;67.82;99285.41;212802;1277;162505;-67
2022/08/16 19:59:31;;;;;;;16.20;12.10;;;;;;;22.73;68.07;99287.70;212738;1277;140053;-67
2022/08/16 20:04:42;;;;;;;20.20;13.30;;;;;;;22.41;68.58;99284.44;213043;1277;142555;-67
2022/08/16 20:09:47;;;;;;;13.80;12.20;;;;;;;22.25;69.40;99281.20;212690;1277;153231;-67
2022/08/16 20:14:52;;;;;;;14.60;12.20;;;;;;;22.13;69.87;99283.61;212564;1277;143116;-68
2022/08/16 20:19:57;;;;;;;15.20;12.00;;;;;;;22.14;70.13;99284.12;212975;1277;141480;-67
2022/08/16 20:25:05;;;;;;;16.70;14.00;;;;;;;22.19;70.17;99294.10;213700;1277;141048;-69
2022/08/16 20:30:10;;;;;;;;;;;;;;;22.23;70.57;99297.91;213786;1277;141359;-68
2022/08/16 20:35:17;;;;;;;14.50;13.00;;;;;;;22.19;70.58;99300.72;214138;1277;127695;-67
2022/08/16 20:40:25;;;;;;;29.90;14.00;;;;;;;22.12;70.55;99309.70;212952;1277;141268;-67
2022/08/16 20:45:45;;;;;;;14.60;11.70;;;;;;;22.01;70.92;99312.25;213756;1279;141364;-66
2022/08/16 20:50:51;;;;;;;18.70;12.20;;;;;;;21.74;70.82;99309.53;215582;1276;141673;-67
2022/08/16 20:55:55;;;;;;;12.80;11.50;;;;;;;21.70;71.21;99318.05;215041;1276;140465;-69
2022/08/16 21:01:03;;;;;;;14.70;13.00;;;;;;;21.55;70.87;99317.80;215606;1277;141423;-67
2022/08/16 21:06:10;;;;;;;12.60;11.30;;;;;;;21.30;70.95;99313.61;215616;1277;140290;-66
2022/08/16 21:11:20;;;;;;;25.90;12.00;;;;;;;21.22;71.73;99315.15;214702;1277;141265;-69
2022/08/16 21:16:26;;;;;;;15.70;13.10;;;;;;;21.34;71.97;99317.69;214411;1277;141955;-68
2022/08/16 21:21:33;;;;;;;17.50;12.20;;;;;;;21.35;72.08;99316.45;214692;1277;141435;-69
2022/08/16 21:26:40;;;;;;;13.10;11.90;;;;;;;21.42;72.19;99315.35;214550;1277;140681;-68
2022/08/16 21:32:13;;;;;;;13.70;11.90;;;;;;;21.45;72.12;99315.01;212989;1277;140850;-66
2022/08/16 21:37:20;;;;;;;12.80;11.50;;;;;;;21.43;72.14;99320.50;214803;1277;140781;-68
2022/08/16 21:42:32;;;;;;;13.70;12.30;;;;;;;21.30;71.71;99321.75;214490;1277;141582;-68
2022/08/16 21:47:41;;;;;;;22.70;13.20;;;;;;;21.11;71.63;99319.73;213368;1278;141958;-66
2022/08/16 21:52:46;;;;;;;;;;;;;;;20.89;72.04;99319.89;214536;1277;141866;-66
2022/08/16 21:57:54;;;;;;;17.10;14.00;;;;;;;20.78;72.62;99317.30;214494;1277;127119;-66
2022/08/16 22:03:02;;;;;;;14.30;12.80;;;;;;;20.74;72.70;99319.65;213869;1277;141776;-66
2022/08/16 22:08:08;;;;;;;17.90;14.00;;;;;;;20.64;72.77;99317.85;213321;1277;141547;-64
2022/08/16 22:13:17;;;;;;;14.90;13.30;;;;;;;20.66;73.11;99321.64;213581;1277;141735;-66
2022/08/16 22:18:22;;;;;;;17.90;12.80;;;;;;;20.71;73.18;99328.02;212840;1277;141054;-66
2022/08/16 22:23:27;;;;;;;21.40;15.80;;;;;;;20.68;73.01;99326.05;213901;1277;142366;-66
2022/08/16 22:28:31;;;;;;;21.10;15.10;;;;;;;20.58;73.29;99329.02;214524;1277;139935;-68
2022/08/16 22:33:37;;;;;;;15.80;12.80;;;;;;;20.57;73.30;99329.58;214178;1277;141812;-65
2022/08/16 22:38:42;;;;;;;17.80;14.00;;;;;;;20.57;73.27;99323.79;213190;1277;141179;-66
2022/08/16 22:44:00;;;;;;;18.50;16.40;;;;;;;20.46;73.16;99323.67;214268;1277;140806;-68
2022/08/16 22:49:05;;;;;;;15.60;13.90;;;;;;;20.33;73.43;99321.33;212715;1277;140192;-67
2022/08/16 22:54:09;;;;;;;25.40;15.30;;;;;;;20.20;73.57;99320.50;214613;1277;141146;-67
2022/08/16 22:59:33;;;;;;;18.10;14.20;;;;;;;20.22;73.86;99308.54;215021;1277;141235;-66
2022/08/16 23:04:37;;;;;;;21.20;15.40;;;;;;;20.25;73.85;99305.07;215025;1277;140684;-67
2022/08/16 23:09:40;;;;;;;14.90;11.40;;;;;;;20.26;73.97;99295.45;215462;1277;141048;-67
2022/08/16 23:14:44;;;;;;;17.30;14.70;;;;;;;20.27;73.87;99291.27;215665;1277;141210;-67
2022/08/16 23:19:47;;;;;;;12.60;11.50;;;;;;;20.28;73.76;99299.70;213966;1277;141176;-66
2022/08/16 23:24:51;;;;;;;13.70;12.40;;;;;;;20.21;73.60;99298.34;213244;1277;140861;-66
2022/08/16 23:29:58;;;;;;;17.40;14.00;;;;;;;20.13;73.55;99298.07;214682;1277;141539;-67